Black Rock, Arkansas
Current Conditions -  °F | °C
As of 12:35 PM on Wednesday 26 Nov 2014 (Local Time) from KARG Reporting Station
Broken Clouds Broken Clouds  
Wind Chill:   Ceiling: 3600
Heat Index:   Visibility: 10mi
Dew Point: -1°   Wind: 5mph
Humidity: 70%   Direction: 210°SSW
Pressure: 30"   Gusts: NA
Location:  36.11°N, 91.1°W
Report Text: KARG 261835Z AUTO 21004KT 10SM FEW028 BKN036 BKN047 04/M01 A3000 RMK AO1
Loading
Personal Weather Stations






























Interactive Weather Map New forecast layout! Learn more

10-Day Weather Forecast

Advertisements
Track Severe Weather on mobile